Terminal Aerodrome Forecast
Issued by NWS

Home | Current Version | Previous Version | Text Only | Print | Product List | Glossary On
Versions: 1 2 3 4 5 6 7 8 9 10 11 12 13 14 15
261
FTUS42 KMLB 091742
TAFTIX
TAF
KTIX 091742Z 0918/1018 36013G20KT P6SM FEW030 BKN120 OVC150
     FM100000 36010KT P6SM FEW030 SCT120 BKN150
     FM100600 36008KT P6SM BKN150
     FM101400 03014G20KT P6SM BKN040=

USA.gov is the U.S. government's official web portal to all federal, state and local government web resources and services.